sensor_id;sensor_type;location;lat;lon;timestamp;temperature;humidity
46490;DHT22;32204;49.160;8.580;2023-12-14T00:00:19;9.20;10.90
46490;DHT22;32204;49.160;8.580;2023-12-14T00:02:45;9.30;1.00
46490;DHT22;32204;49.160;8.580;2023-12-14T00:05:11;9.30;1.00
46490;DHT22;32204;49.160;8.580;2023-12-14T00:07:36;9.30;1.00
46490;DHT22;32204;49.160;8.580;2023-12-14T00:10:02;9.20;1.00
46490;DHT22;32204;49.160;8.580;2023-12-14T00:12:29;9.10;1.00
46490;DHT22;32204;49.160;8.580;2023-12-14T00:14:54;9.10;1.00
46490;DHT22;32204;49.160;8.580;2023-12-14T00:17:20;9.00;1.00
46490;DHT22;32204;49.160;8.580;2023-12-14T00:19:46;9.00;1.00
46490;DHT22;32204;49.160;8.580;2023-12-14T00:22:11;9.10;1.00
46490;DHT22;32204;49.160;8.580;2023-12-14T00:24:37;9.10;1.00
46490;DHT22;32204;49.160;8.580;2023-12-14T00:27:02;9.00;99.90
46490;DHT22;32204;49.160;8.580;2023-12-14T00:29:28;9.00;1.00
46490;DHT22;32204;49.160;8.580;2023-12-14T00:31:54;9.00;1.00
46490;DHT22;32204;49.160;8.580;2023-12-14T00:34:19;9.00;1.00
46490;DHT22;32204;49.160;8.580;2023-12-14T00:36:45;9.00;99.90
46490;DHT22;32204;49.160;8.580;2023-12-14T00:39:11;9.00;99.90
46490;DHT22;32204;49.160;8.580;2023-12-14T00:41:36;9.00;99.90
46490;DHT22;32204;49.160;8.580;2023-12-14T00:44:02;9.00;99.90
46490;DHT22;32204;49.160;8.580;2023-12-14T00:46:28;8.90;99.90
46490;DHT22;32204;49.160;8.580;2023-12-14T00:48:53;8.90;1.00
46490;DHT22;32204;49.160;8.580;2023-12-14T00:51:19;8.90;99.90
46490;DHT22;32204;49.160;8.580;2023-12-14T00:53:44;8.90;99.90
46490;DHT22;32204;49.160;8.580;2023-12-14T00:56:10;8.90;99.90
46490;DHT22;32204;49.160;8.580;2023-12-14T00:58:36;8.90;99.90
46490;DHT22;32204;49.160;8.580;2023-12-14T01:01:01;8.90;99.90
46490;DHT22;32204;49.160;8.580;2023-12-14T01:03:27;8.90;99.90
46490;DHT22;32204;49.160;8.580;2023-12-14T01:05:52;9.00;99.90
46490;DHT22;32204;49.160;8.580;2023-12-14T01:08:18;9.00;1.00
46490;DHT22;32204;49.160;8.580;2023-12-14T01:10:44;8.90;1.00
46490;DHT22;32204;49.160;8.580;2023-12-14T01:13:09;8.90;1.00
46490;DHT22;32204;49.160;8.580;2023-12-14T01:15:35;8.90;1.00
46490;DHT22;32204;49.160;8.580;2023-12-14T01:18:01;8.90;16.70
46490;DHT22;32204;49.160;8.580;2023-12-14T01:20:26;8.90;24.80
46490;DHT22;32204;49.160;8.580;2023-12-14T01:22:52;8.90;73.30
46490;DHT22;32204;49.160;8.580;2023-12-14T01:25:18;8.90;95.30
46490;DHT22;32204;49.160;8.580;2023-12-14T01:27:43;8.90;99.90
46490;DHT22;32204;49.160;8.580;2023-12-14T01:30:09;8.90;99.90
46490;DHT22;32204;49.160;8.580;2023-12-14T01:32:35;8.90;99.90
46490;DHT22;32204;49.160;8.580;2023-12-14T01:35:01;8.90;99.90
46490;DHT22;32204;49.160;8.580;2023-12-14T01:37:26;8.80;99.90
46490;DHT22;32204;49.160;8.580;2023-12-14T01:39:52;8.90;99.90
46490;DHT22;32204;49.160;8.580;2023-12-14T01:42:17;8.90;99.90
46490;DHT22;32204;49.160;8.580;2023-12-14T01:44:43;8.80;99.90
46490;DHT22;32204;49.160;8.580;2023-12-14T01:47:08;8.90;99.90
46490;DHT22;32204;49.160;8.580;2023-12-14T01:49:35;9.00;99.90
46490;DHT22;32204;49.160;8.580;2023-12-14T01:52:00;9.00;99.90
46490;DHT22;32204;49.160;8.580;2023-12-14T01:54:26;9.00;99.90
46490;DHT22;32204;49.160;8.580;2023-12-14T01:56:51;9.00;99.90
46490;DHT22;32204;49.160;8.580;2023-12-14T01:59:17;9.00;99.90
46490;DHT22;32204;49.160;8.580;2023-12-14T02:01:46;9.00;99.90
46490;DHT22;32204;49.160;8.580;2023-12-14T02:04:12;9.00;99.90
46490;DHT22;32204;49.160;8.580;2023-12-14T02:06:39;9.00;99.90
46490;DHT22;32204;49.160;8.580;2023-12-14T02:09:04;9.00;99.90
46490;DHT22;32204;49.160;8.580;2023-12-14T02:11:30;9.00;99.90
46490;DHT22;32204;49.160;8.580;2023-12-14T02:13:56;9.00;99.90
46490;DHT22;32204;49.160;8.580;2023-12-14T02:16:21;9.00;99.90
46490;DHT22;32204;49.160;8.580;2023-12-14T02:18:47;8.90;99.90
46490;DHT22;32204;49.160;8.580;2023-12-14T02:21:12;8.90;99.90
46490;DHT22;32204;49.160;8.580;2023-12-14T02:23:45;8.90;99.90
46490;DHT22;32204;49.160;8.580;2023-12-14T02:26:11;8.90;99.90
46490;DHT22;32204;49.160;8.580;2023-12-14T02:28:37;9.00;99.90
46490;DHT22;32204;49.160;8.580;2023-12-14T02:31:03;9.20;99.90
46490;DHT22;32204;49.160;8.580;2023-12-14T02:33:28;9.20;99.90
46490;DHT22;32204;49.160;8.580;2023-12-14T02:35:54;9.20;99.90
46490;DHT22;32204;49.160;8.580;2023-12-14T02:38:20;9.20;99.90
46490;DHT22;32204;49.160;8.580;2023-12-14T02:40:46;9.20;99.90
46490;DHT22;32204;49.160;8.580;2023-12-14T02:43:11;9.20;99.90
46490;DHT22;32204;49.160;8.580;2023-12-14T02:45:37;9.10;99.90
46490;DHT22;32204;49.160;8.580;2023-12-14T02:48:03;9.20;99.90
46490;DHT22;32204;49.160;8.580;2023-12-14T02:50:28;9.10;99.90
46490;DHT22;32204;49.160;8.580;2023-12-14T02:52:54;9.10;99.90
46490;DHT22;32204;49.160;8.580;2023-12-14T02:55:19;9.10;99.90
46490;DHT22;32204;49.160;8.580;2023-12-14T02:57:45;9.10;99.90
46490;DHT22;32204;49.160;8.580;2023-12-14T03:00:11;9.00;99.90
46490;DHT22;32204;49.160;8.580;2023-12-14T03:02:37;9.10;99.90
46490;DHT22;32204;49.160;8.580;2023-12-14T03:05:03;9.10;99.90
46490;DHT22;32204;49.160;8.580;2023-12-14T03:07:29;9.10;99.90
46490;DHT22;32204;49.160;8.580;2023-12-14T03:09:54;9.00;99.90
46490;DHT22;32204;49.160;8.580;2023-12-14T03:12:20;9.10;99.90
46490;DHT22;32204;49.160;8.580;2023-12-14T03:14:45;9.00;99.90
46490;DHT22;32204;49.160;8.580;2023-12-14T03:17:11;9.00;99.90
46490;DHT22;32204;49.160;8.580;2023-12-14T03:19:42;9.00;99.90
46490;DHT22;32204;49.160;8.580;2023-12-14T03:22:08;9.00;99.90
46490;DHT22;32204;49.160;8.580;2023-12-14T03:24:35;9.10;99.90
46490;DHT22;32204;49.160;8.580;2023-12-14T03:27:01;9.10;99.90
46490;DHT22;32204;49.160;8.580;2023-12-14T03:29:28;9.10;99.90
46490;DHT22;32204;49.160;8.580;2023-12-14T03:31:55;9.20;99.90
46490;DHT22;32204;49.160;8.580;2023-12-14T03:34:20;9.20;99.90
46490;DHT22;32204;49.160;8.580;2023-12-14T03:36:46;9.30;99.90
46490;DHT22;32204;49.160;8.580;2023-12-14T03:39:12;9.30;99.90
46490;DHT22;32204;49.160;8.580;2023-12-14T03:41:37;9.30;99.90
46490;DHT22;32204;49.160;8.580;2023-12-14T03:44:03;9.30;99.90
46490;DHT22;32204;49.160;8.580;2023-12-14T03:46:29;9.30;99.90
46490;DHT22;32204;49.160;8.580;2023-12-14T03:48:55;9.20;99.90
46490;DHT22;32204;49.160;8.580;2023-12-14T03:51:20;9.20;99.90
46490;DHT22;32204;49.160;8.580;2023-12-14T03:53:46;9.30;99.90
46490;DHT22;32204;49.160;8.580;2023-12-14T03:56:12;9.30;99.90
46490;DHT22;32204;49.160;8.580;2023-12-14T03:58:38;9.30;99.90
46490;DHT22;32204;49.160;8.580;2023-12-14T04:01:04;9.30;99.90
46490;DHT22;32204;49.160;8.580;2023-12-14T04:03:29;9.30;99.90
46490;DHT22;32204;49.160;8.580;2023-12-14T04:05:55;9.30;99.90
46490;DHT22;32204;49.160;8.580;2023-12-14T04:08:20;9.30;99.90
46490;DHT22;32204;49.160;8.580;2023-12-14T04:10:46;9.40;99.90
46490;DHT22;32204;49.160;8.580;2023-12-14T04:13:12;9.30;99.90
46490;DHT22;32204;49.160;8.580;2023-12-14T04:15:37;9.30;99.90
46490;DHT22;32204;49.160;8.580;2023-12-14T04:18:03;9.40;99.90
46490;DHT22;32204;49.160;8.580;2023-12-14T04:20:29;9.40;99.90
46490;DHT22;32204;49.160;8.580;2023-12-14T04:22:55;9.40;99.90
46490;DHT22;32204;49.160;8.580;2023-12-14T04:25:20;9.50;99.90
46490;DHT22;32204;49.160;8.580;2023-12-14T04:27:46;9.50;55.70
46490;DHT22;32204;49.160;8.580;2023-12-14T04:30:11;9.40;99.90
46490;DHT22;32204;49.160;8.580;2023-12-14T04:32:38;9.40;99.90
46490;DHT22;32204;49.160;8.580;2023-12-14T04:35:04;9.50;99.90
46490;DHT22;32204;49.160;8.580;2023-12-14T04:37:30;9.40;4.40
46490;DHT22;32204;49.160;8.580;2023-12-14T04:39:59;9.40;69.10
46490;DHT22;32204;49.160;8.580;2023-12-14T04:42:24;9.40;99.90
46490;DHT22;32204;49.160;8.580;2023-12-14T04:44:50;9.50;99.90
46490;DHT22;32204;49.160;8.580;2023-12-14T04:47:15;9.50;96.10
46490;DHT22;32204;49.160;8.580;2023-12-14T04:49:42;9.50;14.90
46490;DHT22;32204;49.160;8.580;2023-12-14T04:52:07;9.60;19.70
46490;DHT22;32204;49.160;8.580;2023-12-14T04:54:34;9.60;13.60
46490;DHT22;32204;49.160;8.580;2023-12-14T04:57:03;9.60;1.00
46490;DHT22;32204;49.160;8.580;2023-12-14T04:59:29;9.60;1.00
46490;DHT22;32204;49.160;8.580;2023-12-14T05:01:54;9.60;1.00
46490;DHT22;32204;49.160;8.580;2023-12-14T05:04:20;9.50;1.00
46490;DHT22;32204;49.160;8.580;2023-12-14T05:06:46;9.50;1.00
46490;DHT22;32204;49.160;8.580;2023-12-14T05:09:11;9.50;21.00
46490;DHT22;32204;49.160;8.580;2023-12-14T05:11:39;9.40;1.00
46490;DHT22;32204;49.160;8.580;2023-12-14T05:14:04;9.30;99.90
46490;DHT22;32204;49.160;8.580;2023-12-14T05:16:30;9.30;99.90
46490;DHT22;32204;49.160;8.580;2023-12-14T05:18:56;9.40;99.90
46490;DHT22;32204;49.160;8.580;2023-12-14T05:21:22;9.40;99.90
46490;DHT22;32204;49.160;8.580;2023-12-14T05:23:48;9.40;99.90
46490;DHT22;32204;49.160;8.580;2023-12-14T05:26:14;9.40;99.90
46490;DHT22;32204;49.160;8.580;2023-12-14T05:28:39;9.50;99.90
46490;DHT22;32204;49.160;8.580;2023-12-14T05:31:05;9.40;99.90
46490;DHT22;32204;49.160;8.580;2023-12-14T05:33:31;9.30;99.90
46490;DHT22;32204;49.160;8.580;2023-12-14T05:35:59;9.30;99.90
46490;DHT22;32204;49.160;8.580;2023-12-14T05:38:24;9.30;99.90
46490;DHT22;32204;49.160;8.580;2023-12-14T05:40:50;9.20;99.90
46490;DHT22;32204;49.160;8.580;2023-12-14T05:43:16;9.20;99.90
46490;DHT22;32204;49.160;8.580;2023-12-14T05:45:41;9.20;99.90
46490;DHT22;32204;49.160;8.580;2023-12-14T05:48:07;9.20;99.90
46490;DHT22;32204;49.160;8.580;2023-12-14T05:50:32;9.20;99.90
46490;DHT22;32204;49.160;8.580;2023-12-14T05:52:58;9.20;99.90
46490;DHT22;32204;49.160;8.580;2023-12-14T05:55:24;9.20;99.90
46490;DHT22;32204;49.160;8.580;2023-12-14T05:57:51;9.30;99.90
46490;DHT22;32204;49.160;8.580;2023-12-14T06:00:18;9.30;99.90
46490;DHT22;32204;49.160;8.580;2023-12-14T06:02:43;9.40;99.90
46490;DHT22;32204;49.160;8.580;2023-12-14T06:05:09;9.40;99.90
46490;DHT22;32204;49.160;8.580;2023-12-14T06:07:35;9.40;99.90
46490;DHT22;32204;49.160;8.580;2023-12-14T06:10:02;9.40;99.90
46490;DHT22;32204;49.160;8.580;2023-12-14T06:12:27;9.30;99.90
46490;DHT22;32204;49.160;8.580;2023-12-14T06:14:53;9.20;99.90
46490;DHT22;32204;49.160;8.580;2023-12-14T06:17:18;9.30;99.90
46490;DHT22;32204;49.160;8.580;2023-12-14T06:19:44;9.30;99.90
46490;DHT22;32204;49.160;8.580;2023-12-14T06:22:10;9.30;99.90
46490;DHT22;32204;49.160;8.580;2023-12-14T06:24:35;9.40;99.90
46490;DHT22;32204;49.160;8.580;2023-12-14T06:27:01;9.40;99.90
46490;DHT22;32204;49.160;8.580;2023-12-14T06:29:26;9.50;99.90
46490;DHT22;32204;49.160;8.580;2023-12-14T06:31:52;9.50;99.90
46490;DHT22;32204;49.160;8.580;2023-12-14T06:34:17;9.50;99.90
46490;DHT22;32204;49.160;8.580;2023-12-14T06:36:44;9.40;96.20
46490;DHT22;32204;49.160;8.580;2023-12-14T06:39:10;9.40;99.90
46490;DHT22;32204;49.160;8.580;2023-12-14T06:41:36;9.30;99.90
46490;DHT22;32204;49.160;8.580;2023-12-14T06:44:02;9.20;99.90
46490;DHT22;32204;49.160;8.580;2023-12-14T06:46:28;9.20;99.90
46490;DHT22;32204;49.160;8.580;2023-12-14T06:48:54;9.10;99.90
46490;DHT22;32204;49.160;8.580;2023-12-14T06:51:21;9.10;99.90
46490;DHT22;32204;49.160;8.580;2023-12-14T06:53:47;9.20;99.90
46490;DHT22;32204;49.160;8.580;2023-12-14T06:56:13;9.30;99.90
46490;DHT22;32204;49.160;8.580;2023-12-14T06:58:40;9.30;99.90
46490;DHT22;32204;49.160;8.580;2023-12-14T07:01:06;9.30;99.90
46490;DHT22;32204;49.160;8.580;2023-12-14T07:03:32;9.30;99.90
46490;DHT22;32204;49.160;8.580;2023-12-14T07:05:59;9.20;99.90
46490;DHT22;32204;49.160;8.580;2023-12-14T07:08:25;9.30;99.90
46490;DHT22;32204;49.160;8.580;2023-12-14T07:10:51;9.30;99.90
46490;DHT22;32204;49.160;8.580;2023-12-14T07:13:16;9.30;99.90
46490;DHT22;32204;49.160;8.580;2023-12-14T07:15:42;9.40;99.90
46490;DHT22;32204;49.160;8.580;2023-12-14T07:18:07;9.30;99.90
46490;DHT22;32204;49.160;8.580;2023-12-14T07:20:33;9.30;99.90
46490;DHT22;32204;49.160;8.580;2023-12-14T07:22:59;9.30;99.90
46490;DHT22;32204;49.160;8.580;2023-12-14T07:25:24;9.30;99.90
46490;DHT22;32204;49.160;8.580;2023-12-14T07:27:50;9.30;99.90
46490;DHT22;32204;49.160;8.580;2023-12-14T07:30:16;9.30;99.90
46490;DHT22;32204;49.160;8.580;2023-12-14T07:32:42;9.30;99.90
46490;DHT22;32204;49.160;8.580;2023-12-14T07:35:07;9.30;99.90
46490;DHT22;32204;49.160;8.580;2023-12-14T07:37:33;9.30;99.90
46490;DHT22;32204;49.160;8.580;2023-12-14T07:39:59;9.30;99.90
46490;DHT22;32204;49.160;8.580;2023-12-14T07:42:25;9.30;99.90
46490;DHT22;32204;49.160;8.580;2023-12-14T07:44:51;9.30;99.90
46490;DHT22;32204;49.160;8.580;2023-12-14T07:47:16;9.30;99.90
46490;DHT22;32204;49.160;8.580;2023-12-14T07:49:42;9.30;99.90
46490;DHT22;32204;49.160;8.580;2023-12-14T07:52:08;9.30;99.90
46490;DHT22;32204;49.160;8.580;2023-12-14T07:54:35;9.20;99.90
46490;DHT22;32204;49.160;8.580;2023-12-14T07:57:00;9.30;99.90
46490;DHT22;32204;49.160;8.580;2023-12-14T07:59:26;9.20;99.90
46490;DHT22;32204;49.160;8.580;2023-12-14T08:01:51;9.30;99.90
46490;DHT22;32204;49.160;8.580;2023-12-14T08:04:17;9.30;99.90
46490;DHT22;32204;49.160;8.580;2023-12-14T08:06:42;9.30;99.90
46490;DHT22;32204;49.160;8.580;2023-12-14T08:09:08;9.30;99.90
46490;DHT22;32204;49.160;8.580;2023-12-14T08:11:34;9.30;99.90
46490;DHT22;32204;49.160;8.580;2023-12-14T08:14:00;9.30;99.90
46490;DHT22;32204;49.160;8.580;2023-12-14T08:16:25;9.30;99.90
46490;DHT22;32204;49.160;8.580;2023-12-14T08:18:51;9.30;99.90
46490;DHT22;32204;49.160;8.580;2023-12-14T08:21:18;9.30;99.90
46490;DHT22;32204;49.160;8.580;2023-12-14T08:23:44;9.30;99.90
46490;DHT22;32204;49.160;8.580;2023-12-14T08:26:09;9.30;99.90
46490;DHT22;32204;49.160;8.580;2023-12-14T08:28:41;9.30;99.90
46490;DHT22;32204;49.160;8.580;2023-12-14T08:31:07;9.30;99.90
46490;DHT22;32204;49.160;8.580;2023-12-14T08:33:35;9.30;99.90
46490;DHT22;32204;49.160;8.580;2023-12-14T08:36:00;9.30;99.90
46490;DHT22;32204;49.160;8.580;2023-12-14T08:38:26;9.40;99.90
46490;DHT22;32204;49.160;8.580;2023-12-14T08:40:51;9.40;99.90
46490;DHT22;32204;49.160;8.580;2023-12-14T08:43:17;9.40;99.90
46490;DHT22;32204;49.160;8.580;2023-12-14T08:45:43;9.50;99.90
46490;DHT22;32204;49.160;8.580;2023-12-14T08:48:08;9.40;99.90
46490;DHT22;32204;49.160;8.580;2023-12-14T08:50:34;9.40;99.90
46490;DHT22;32204;49.160;8.580;2023-12-14T08:53:00;9.40;99.90
46490;DHT22;32204;49.160;8.580;2023-12-14T08:55:26;9.50;99.90
46490;DHT22;32204;49.160;8.580;2023-12-14T08:57:52;9.50;99.90
46490;DHT22;32204;49.160;8.580;2023-12-14T09:00:18;9.50;99.90
46490;DHT22;32204;49.160;8.580;2023-12-14T09:02:45;9.50;99.90
46490;DHT22;32204;49.160;8.580;2023-12-14T09:05:14;9.50;99.90
46490;DHT22;32204;49.160;8.580;2023-12-14T09:07:41;9.40;99.90
46490;DHT22;32204;49.160;8.580;2023-12-14T09:10:07;9.40;99.90
46490;DHT22;32204;49.160;8.580;2023-12-14T09:12:33;9.40;99.90
46490;DHT22;32204;49.160;8.580;2023-12-14T09:15:00;9.40;99.90
46490;DHT22;32204;49.160;8.580;2023-12-14T09:17:25;9.50;99.90
46490;DHT22;32204;49.160;8.580;2023-12-14T09:19:51;9.40;99.90
46490;DHT22;32204;49.160;8.580;2023-12-14T09:22:17;9.40;99.90
46490;DHT22;32204;49.160;8.580;2023-12-14T09:24:43;9.40;99.90
46490;DHT22;32204;49.160;8.580;2023-12-14T09:27:09;9.30;99.90
46490;DHT22;32204;49.160;8.580;2023-12-14T09:29:34;9.40;99.90
46490;DHT22;32204;49.160;8.580;2023-12-14T09:32:00;9.50;99.90
46490;DHT22;32204;49.160;8.580;2023-12-14T09:34:25;9.50;99.90
46490;DHT22;32204;49.160;8.580;2023-12-14T09:36:51;9.50;99.90
46490;DHT22;32204;49.160;8.580;2023-12-14T09:39:17;9.50;99.90
46490;DHT22;32204;49.160;8.580;2023-12-14T09:41:44;9.60;99.90
46490;DHT22;32204;49.160;8.580;2023-12-14T09:44:11;9.50;99.90
46490;DHT22;32204;49.160;8.580;2023-12-14T09:46:38;9.50;99.90
46490;DHT22;32204;49.160;8.580;2023-12-14T09:49:04;9.50;99.90
46490;DHT22;32204;49.160;8.580;2023-12-14T09:51:30;9.60;99.90
46490;DHT22;32204;49.160;8.580;2023-12-14T09:53:56;9.50;99.90
46490;DHT22;32204;49.160;8.580;2023-12-14T09:56:25;9.60;99.90
46490;DHT22;32204;49.160;8.580;2023-12-14T09:58:51;9.70;99.90
46490;DHT22;32204;49.160;8.580;2023-12-14T10:01:24;9.80;99.90
46490;DHT22;32204;49.160;8.580;2023-12-14T10:03:50;9.80;99.90
46490;DHT22;32204;49.160;8.580;2023-12-14T10:06:18;9.90;99.90
46490;DHT22;32204;49.160;8.580;2023-12-14T10:08:56;9.90;99.90
46490;DHT22;32204;49.160;8.580;2023-12-14T10:11:21;9.90;99.90
46490;DHT22;32204;49.160;8.580;2023-12-14T10:13:47;10.00;99.90
46490;DHT22;32204;49.160;8.580;2023-12-14T10:16:21;10.00;99.90
46490;DHT22;32204;49.160;8.580;2023-12-14T10:18:51;9.80;99.90
46490;DHT22;32204;49.160;8.580;2023-12-14T10:21:17;9.80;99.90
46490;DHT22;32204;49.160;8.580;2023-12-14T10:23:44;9.70;99.90
46490;DHT22;32204;49.160;8.580;2023-12-14T10:26:12;9.70;99.90
46490;DHT22;32204;49.160;8.580;2023-12-14T10:28:39;9.70;99.90
46490;DHT22;32204;49.160;8.580;2023-12-14T10:31:05;9.70;99.90
46490;DHT22;32204;49.160;8.580;2023-12-14T10:33:31;9.60;99.90
46490;DHT22;32204;49.160;8.580;2023-12-14T10:35:56;9.70;99.90
46490;DHT22;32204;49.160;8.580;2023-12-14T10:38:24;9.70;99.90
46490;DHT22;32204;49.160;8.580;2023-12-14T10:40:51;9.80;99.90
46490;DHT22;32204;49.160;8.580;2023-12-14T10:43:18;9.80;99.90
46490;DHT22;32204;49.160;8.580;2023-12-14T10:45:46;9.90;99.90
46490;DHT22;32204;49.160;8.580;2023-12-14T10:48:17;9.90;99.90
46490;DHT22;32204;49.160;8.580;2023-12-14T10:50:46;9.90;99.90
46490;DHT22;32204;49.160;8.580;2023-12-14T10:53:12;10.00;99.90
46490;DHT22;32204;49.160;8.580;2023-12-14T10:55:41;9.90;99.90
46490;DHT22;32204;49.160;8.580;2023-12-14T10:58:08;9.90;99.90
46490;DHT22;32204;49.160;8.580;2023-12-14T11:00:35;9.80;99.90
46490;DHT22;32204;49.160;8.580;2023-12-14T11:03:04;9.80;99.90
46490;DHT22;32204;49.160;8.580;2023-12-14T11:05:34;9.70;99.90
46490;DHT22;32204;49.160;8.580;2023-12-14T11:08:04;9.70;99.90
46490;DHT22;32204;49.160;8.580;2023-12-14T11:10:40;9.70;99.90
46490;DHT22;32204;49.160;8.580;2023-12-14T11:13:07;9.70;99.90
46490;DHT22;32204;49.160;8.580;2023-12-14T11:15:36;9.60;99.90
46490;DHT22;32204;49.160;8.580;2023-12-14T11:23:10;9.50;99.90
46490;DHT22;32204;49.160;8.580;2023-12-14T11:25:37;9.60;99.90
46490;DHT22;32204;49.160;8.580;2023-12-14T11:28:03;9.60;99.90
46490;DHT22;32204;49.160;8.580;2023-12-14T11:30:30;9.60;99.90
46490;DHT22;32204;49.160;8.580;2023-12-14T11:32:56;9.60;99.90
46490;DHT22;32204;49.160;8.580;2023-12-14T11:35:21;9.70;99.90
46490;DHT22;32204;49.160;8.580;2023-12-14T11:37:47;9.70;99.90
46490;DHT22;32204;49.160;8.580;2023-12-14T11:40:12;9.60;99.90
46490;DHT22;32204;49.160;8.580;2023-12-14T11:42:41;9.50;99.90
46490;DHT22;32204;49.160;8.580;2023-12-14T11:45:07;9.50;99.90
46490;DHT22;32204;49.160;8.580;2023-12-14T11:47:33;9.50;99.90
46490;DHT22;32204;49.160;8.580;2023-12-14T11:49:58;9.70;99.90
46490;DHT22;32204;49.160;8.580;2023-12-14T11:52:24;9.60;99.90
46490;DHT22;32204;49.160;8.580;2023-12-14T11:54:52;9.70;99.90
46490;DHT22;32204;49.160;8.580;2023-12-14T11:57:18;9.70;99.90
46490;DHT22;32204;49.160;8.580;2023-12-14T11:59:45;9.70;99.90
46490;DHT22;32204;49.160;8.580;2023-12-14T12:02:10;9.70;99.90
46490;DHT22;32204;49.160;8.580;2023-12-14T12:04:36;9.70;99.90
46490;DHT22;32204;49.160;8.580;2023-12-14T12:07:05;9.70;99.90
46490;DHT22;32204;49.160;8.580;2023-12-14T12:09:35;9.70;99.90
46490;DHT22;32204;49.160;8.580;2023-12-14T12:12:01;9.60;99.90
46490;DHT22;32204;49.160;8.580;2023-12-14T12:14:28;9.70;99.90
46490;DHT22;32204;49.160;8.580;2023-12-14T12:16:54;9.60;99.90
46490;DHT22;32204;49.160;8.580;2023-12-14T12:19:20;9.60;99.90
46490;DHT22;32204;49.160;8.580;2023-12-14T12:21:46;9.50;99.90
46490;DHT22;32204;49.160;8.580;2023-12-14T12:24:11;9.60;99.90
46490;DHT22;32204;49.160;8.580;2023-12-14T12:26:37;9.50;99.90
46490;DHT22;32204;49.160;8.580;2023-12-14T12:29:03;9.40;99.90
46490;DHT22;32204;49.160;8.580;2023-12-14T12:31:31;9.30;99.90
46490;DHT22;32204;49.160;8.580;2023-12-14T12:33:57;9.40;99.90
46490;DHT22;32204;49.160;8.580;2023-12-14T12:36:22;9.40;99.90
46490;DHT22;32204;49.160;8.580;2023-12-14T12:38:48;9.40;99.90
46490;DHT22;32204;49.160;8.580;2023-12-14T12:41:13;9.50;99.90
46490;DHT22;32204;49.160;8.580;2023-12-14T12:43:39;9.50;99.90
46490;DHT22;32204;49.160;8.580;2023-12-14T12:46:05;9.50;99.90
46490;DHT22;32204;49.160;8.580;2023-12-14T12:48:30;9.50;99.90
46490;DHT22;32204;49.160;8.580;2023-12-14T12:50:56;9.60;99.90
46490;DHT22;32204;49.160;8.580;2023-12-14T12:53:21;9.60;99.90
46490;DHT22;32204;49.160;8.580;2023-12-14T12:55:47;9.70;99.90
46490;DHT22;32204;49.160;8.580;2023-12-14T12:58:13;9.70;99.90
46490;DHT22;32204;49.160;8.580;2023-12-14T13:00:40;9.70;99.90
46490;DHT22;32204;49.160;8.580;2023-12-14T13:03:05;9.80;99.90
46490;DHT22;32204;49.160;8.580;2023-12-14T13:05:31;9.70;99.90
46490;DHT22;32204;49.160;8.580;2023-12-14T13:07:57;9.70;99.90
46490;DHT22;32204;49.160;8.580;2023-12-14T13:10:23;9.80;99.90
46490;DHT22;32204;49.160;8.580;2023-12-14T13:12:53;9.90;99.90
46490;DHT22;32204;49.160;8.580;2023-12-14T13:15:19;10.00;99.90
46490;DHT22;32204;49.160;8.580;2023-12-14T13:17:44;10.10;99.90
46490;DHT22;32204;49.160;8.580;2023-12-14T13:20:10;10.00;99.90
46490;DHT22;32204;49.160;8.580;2023-12-14T13:22:35;10.10;99.90
46490;DHT22;32204;49.160;8.580;2023-12-14T13:25:01;10.10;99.90
46490;DHT22;32204;49.160;8.580;2023-12-14T13:27:28;10.20;99.90
46490;DHT22;32204;49.160;8.580;2023-12-14T13:29:54;10.10;99.90
46490;DHT22;32204;49.160;8.580;2023-12-14T13:32:19;10.20;99.90
46490;DHT22;32204;49.160;8.580;2023-12-14T13:34:45;10.10;99.90
46490;DHT22;32204;49.160;8.580;2023-12-14T13:37:11;10.20;99.90
46490;DHT22;32204;49.160;8.580;2023-12-14T13:39:36;10.20;99.90
46490;DHT22;32204;49.160;8.580;2023-12-14T13:42:06;10.20;99.90
46490;DHT22;32204;49.160;8.580;2023-12-14T13:44:34;10.30;99.90
46490;DHT22;32204;49.160;8.580;2023-12-14T13:47:02;10.20;58.90
46490;DHT22;32204;49.160;8.580;2023-12-14T13:49:28;10.20;97.60
46490;DHT22;32204;49.160;8.580;2023-12-14T13:51:54;10.30;99.90
46490;DHT22;32204;49.160;8.580;2023-12-14T13:54:19;10.30;99.90
46490;DHT22;32204;49.160;8.580;2023-12-14T13:56:45;10.30;34.80
46490;DHT22;32204;49.160;8.580;2023-12-14T13:59:11;10.20;70.90
46490;DHT22;32204;49.160;8.580;2023-12-14T14:01:36;10.20;28.40
46490;DHT22;32204;49.160;8.580;2023-12-14T14:04:03;10.10;6.50
46490;DHT22;32204;49.160;8.580;2023-12-14T14:06:29;10.10;73.30
46490;DHT22;32204;49.160;8.580;2023-12-14T14:08:54;10.10;63.40
46490;DHT22;32204;49.160;8.580;2023-12-14T14:11:21;10.10;35.50
46490;DHT22;32204;49.160;8.580;2023-12-14T14:13:48;10.10;99.90
46490;DHT22;32204;49.160;8.580;2023-12-14T14:16:13;10.10;99.90
46490;DHT22;32204;49.160;8.580;2023-12-14T14:18:39;10.10;60.20
46490;DHT22;32204;49.160;8.580;2023-12-14T14:21:05;10.10;98.90
46490;DHT22;32204;49.160;8.580;2023-12-14T14:23:34;10.10;99.90
46490;DHT22;32204;49.160;8.580;2023-12-14T14:25:59;10.10;99.90
46490;DHT22;32204;49.160;8.580;2023-12-14T14:28:25;10.20;99.90
46490;DHT22;32204;49.160;8.580;2023-12-14T14:30:51;10.20;20.90
46490;DHT22;32204;49.160;8.580;2023-12-14T14:33:17;10.20;1.00
46490;DHT22;32204;49.160;8.580;2023-12-14T14:35:46;10.20;14.80
46490;DHT22;32204;49.160;8.580;2023-12-14T14:38:13;10.20;1.00
46490;DHT22;32204;49.160;8.580;2023-12-14T14:40:38;10.20;1.00
46490;DHT22;32204;49.160;8.580;2023-12-14T14:43:04;10.20;1.00
46490;DHT22;32204;49.160;8.580;2023-12-14T14:45:30;10.10;1.00
46490;DHT22;32204;49.160;8.580;2023-12-14T14:47:56;10.10;1.00
46490;DHT22;32204;49.160;8.580;2023-12-14T14:50:22;10.00;1.00
46490;DHT22;32204;49.160;8.580;2023-12-14T14:52:47;10.00;1.00
46490;DHT22;32204;49.160;8.580;2023-12-14T14:55:13;10.00;1.00
46490;DHT22;32204;49.160;8.580;2023-12-14T14:57:39;9.90;1.00
46490;DHT22;32204;49.160;8.580;2023-12-14T15:00:06;9.90;4.60
46490;DHT22;32204;49.160;8.580;2023-12-14T15:02:32;9.90;24.70
46490;DHT22;32204;49.160;8.580;2023-12-14T15:04:57;9.90;99.90
46490;DHT22;32204;49.160;8.580;2023-12-14T15:07:23;9.90;99.90
46490;DHT22;32204;49.160;8.580;2023-12-14T15:09:48;9.90;99.90
46490;DHT22;32204;49.160;8.580;2023-12-14T15:12:14;9.90;99.90
46490;DHT22;32204;49.160;8.580;2023-12-14T15:14:40;10.00;99.90
46490;DHT22;32204;49.160;8.580;2023-12-14T15:17:05;9.90;99.90
46490;DHT22;32204;49.160;8.580;2023-12-14T15:19:31;9.90;99.90
46490;DHT22;32204;49.160;8.580;2023-12-14T15:21:57;9.90;99.90
46490;DHT22;32204;49.160;8.580;2023-12-14T15:24:22;9.90;99.90
46490;DHT22;32204;49.160;8.580;2023-12-14T15:26:48;9.90;99.90
46490;DHT22;32204;49.160;8.580;2023-12-14T15:29:14;10.00;99.90
46490;DHT22;32204;49.160;8.580;2023-12-14T15:31:40;9.90;52.40
46490;DHT22;32204;49.160;8.580;2023-12-14T15:34:06;9.90;99.90
46490;DHT22;32204;49.160;8.580;2023-12-14T15:36:34;9.90;99.90
46490;DHT22;32204;49.160;8.580;2023-12-14T15:39:00;9.90;99.90
46490;DHT22;32204;49.160;8.580;2023-12-14T15:41:26;9.80;99.90